Weather at Lehigh Valley International Airport

Public forecast

Using degrees Fahrenheit for public forecast. Weather courtesy of forecast.io.

Current aviation weather report (METAR) for Lehigh Valley International Airport

Retrieved 2021/09/27 14:51 UTC (15 minutes ago):

KABE 271451Z 25008KT 10SM CLR 21/11 A3000 RMK AO2 SLP157 T02060106 58009

Aviation forecast (TAF) for Lehigh Valley International Airport

Retrieved 2021/09/27 12:22 UTC (3 hours ago):

TAF KABE 271120Z 2712/2812 23005KT P6SM SCT120 FM271500 24010G19KT P6SM SCT100 FM272300 22009KT P6SM FEW250 FM280300 VRB04KT P6SM FEW200 WS020/23035KT FM280600 VRB04KT P6SM SCT150